Time;durP1;ratioP1;P1;durP2;ratioP2;P2;SDS_P1;SDS_P2;PMS_P1;PMS_P2;Temp;Humidity;BMP_temperature;BMP_pressure;BME280_temperature;BME280_humidity;BME280_pressure;Samples;Min_cycle;Max_cycle;Signal;HPM_P1;HPM_P2
2021/11/28 11:32:44;;;;;;;10.77;7.80;;;1.90;99.90;;;;;;5140690;27;20287;-79
2021/11/28 11:35:16;;;;;;;9.43;6.40;;;1.80;99.90;;;;;;5134785;28;20491;-79
2021/11/28 11:37:43;;;;;;;21.13;15.23;;;1.90;99.90;;;;;;5136783;27;20396;-80
2021/11/28 11:40:11;;;;;;;6.47;4.40;;;2.00;99.90;;;;;;5135136;28;20409;-79
2021/11/28 11:42:45;;;;;;;3.83;3.43;;;2.00;99.90;;;;;;5135053;28;20431;-79
2021/11/28 11:45:16;;;;;;;8.13;5.53;;;1.90;99.90;;;;;;5133443;27;20416;-78
2021/11/28 11:47:42;;;;;;;9.87;6.17;;;1.80;99.90;;;;;;5132194;28;20462;-79
2021/11/28 11:50:10;;;;;;;3.53;3.23;;;1.70;99.90;;;;;;5133037;28;20594;-77
2021/11/28 11:52:37;;;;;;;5.10;4.03;;;1.70;99.90;;;;;;5124944;27;20439;-78
2021/11/28 11:55:17;;;;;;;10.70;7.20;;;1.60;99.90;;;;;;5127833;28;20794;-78
2021/11/28 11:58:12;;;;;;;4.17;3.50;;;1.60;99.90;;;;;;5133126;28;20445;-79
2021/11/28 12:01:02;;;;;;;4.03;3.43;;;1.70;99.90;;;;;;5125713;28;20561;-78
2021/11/28 12:03:41;;;;;;;5.77;3.80;;;1.70;99.90;;;;;;5115508;28;20436;-79
2021/11/28 12:06:07;;;;;;;4.03;3.30;;;1.70;99.90;;;;;;5126456;28;20404;-79
2021/11/28 12:08:33;;;;;;;3.47;3.17;;;1.70;99.90;;;;;;5134940;28;20875;-79
2021/11/28 12:11:08;;;;;;;8.43;6.20;;;1.80;99.90;;;;;;5135059;28;20195;-78
2021/11/28 12:13:40;;;;;;;6.70;4.40;;;1.90;99.90;;;;;;5131600;28;20190;-76
2021/11/28 12:16:05;;;;;;;6.43;3.83;;;2.00;99.90;;;;;;5132586;28;20770;-78
2021/11/28 12:18:34;;;;;;;7.60;4.13;;;2.00;99.90;;;;;;5131964;27;20412;-78
2021/11/28 12:21:07;;;;;;;4.10;3.53;;;2.00;99.90;;;;;;5132692;28;20178;-77
2021/11/28 12:23:54;;;;;;;4.70;3.77;;;2.10;99.90;;;;;;5120061;28;20441;-77
2021/11/28 12:26:26;;;;;;;12.43;7.67;;;2.30;99.90;;;;;;5127657;28;20400;-81
2021/11/28 12:29:04;;;;;;;10.93;7.57;;;2.30;99.90;;;;;;5129917;28;20427;-78
2021/11/28 12:31:33;;;;;;;4.47;3.57;;;2.30;99.90;;;;;;5133825;27;20479;-81
2021/11/28 12:34:03;;;;;;;5.80;4.20;;;2.30;99.90;;;;;;5133445;28;20461;-80
2021/11/28 12:36:36;;;;;;;4.47;3.67;;;2.40;99.90;;;;;;5134472;27;20416;-82
2021/11/28 12:39:25;;;;;;;10.60;6.23;;;2.30;99.90;;;;;;5129106;28;20419;-80
2021/11/28 12:42:05;;;;;;;7.03;4.33;;;2.30;99.90;;;;;;5110715;28;20429;-81
2021/11/28 12:44:54;;;;;;;6.20;4.70;;;2.10;99.90;;;;;;5099868;28;21016;-78
2021/11/28 12:47:23;;;;;;;6.80;5.77;;;2.00;99.90;;;;;;5117915;28;20414;-79
2021/11/28 12:49:58;;;;;;;8.27;6.20;;;2.10;99.90;;;;;;5117768;28;20512;-78
2021/11/28 12:52:24;;;;;;;4.73;4.20;;;2.00;99.90;;;;;;5114196;27;20453;-78
2021/11/28 12:55:05;;;;;;;5.70;4.30;;;2.00;99.90;;;;;;5095477;28;20419;-77
2021/11/28 12:57:39;;;;;;;4.57;3.63;;;1.90;99.90;;;;;;5102887;28;20171;-77
2021/11/28 13:00:23;;;;;;;5.40;3.70;;;1.80;99.90;;;;;;5117701;28;20898;-78
2021/11/28 13:02:51;;;;;;;6.50;4.63;;;1.60;99.90;;;;;;5118931;28;20494;-79
2021/11/28 13:05:34;;;;;;;31.47;19.77;;;1.60;99.90;;;;;;5117919;28;20464;-80
2021/11/28 13:08:05;;;;;;;29.07;13.00;;;1.70;99.90;;;;;;5109365;28;20409;-80
2021/11/28 13:10:51;;;;;;;8.17;5.30;;;1.80;99.90;;;;;;5114269;28;20460;-81
2021/11/28 13:13:25;;;;;;;7.30;5.10;;;2.00;99.90;;;;;;5100139;28;20422;-80
2021/11/28 13:16:09;;;;;;;9.57;5.27;;;2.10;99.90;;;;;;5099004;28;20414;-79
2021/11/28 13:18:40;;;;;;;7.93;4.97;;;2.20;99.90;;;;;;5098334;28;20402;-82
2021/11/28 13:21:08;;;;;;;7.23;4.17;;;2.20;99.90;;;;;;5098557;28;20418;-80
2021/11/28 13:23:39;;;;;;;4.63;4.17;;;2.20;99.90;;;;;;5098637;28;20811;-79
2021/11/28 13:26:05;;;;;;;9.03;5.80;;;2.20;99.90;;;;;;5097967;28;20949;-80
2021/11/28 13:28:35;;;;;;;7.17;4.57;;;2.30;99.90;;;;;;5098653;28;20422;-80
2021/11/28 13:31:07;;;;;;;10.50;6.83;;;2.40;99.90;;;;;;5099245;28;20208;-79
2021/11/28 13:33:35;;;;;;;5.77;4.13;;;2.40;99.90;;;;;;5098911;28;20434;-79
2021/11/28 13:36:07;;;;;;;4.50;4.10;;;2.30;99.90;;;;;;5101275;28;20455;-79
2021/11/28 13:38:42;;;;;;;6.07;5.03;;;2.10;99.90;;;;;;5109828;28;20417;-79
2021/11/28 13:41:18;;;;;;;5.33;4.83;;;1.90;99.90;;;;;;5120719;28;20413;-79
2021/11/28 13:43:57;;;;;;;7.07;5.47;;;1.80;99.90;;;;;;5117289;28;20474;-80
2021/11/28 13:46:38;;;;;;;6.80;4.77;;;1.60;99.90;;;;;;5100142;28;20394;-79
2021/11/28 13:49:17;;;;;;;9.07;5.53;;;1.50;99.90;;;;;;5118822;28;20405;-79
2021/11/28 13:51:54;;;;;;;8.50;5.33;;;1.50;99.90;;;;;;5118891;28;20447;-80
2021/11/28 13:54:31;;;;;;;5.50;4.77;;;1.40;99.90;;;;;;5117453;28;20409;-79
2021/11/28 13:57:07;;;;;;;8.13;6.93;;;1.40;99.90;;;;;;5116709;28;20416;-79
2021/11/28 13:59:40;;;;;;;7.33;5.33;;;1.40;99.90;;;;;;5118370;28;20400;-80
2021/11/28 14:02:09;;;;;;;5.70;4.53;;;1.30;99.90;;;;;;5117680;28;20502;-79
2021/11/28 14:04:36;;;;;;;12.63;8.47;;;1.30;99.90;;;;;;5117461;28;20934;-79
2021/11/28 14:07:08;;;;;;;19.43;10.47;;;1.20;99.90;;;;;;5119029;28;20441;-80
2021/11/28 14:09:39;;;;;;;13.60;6.47;;;1.20;99.90;;;;;;5118345;28;20898;-80
2021/11/28 14:12:10;;;;;;;6.97;5.50;;;1.20;99.90;;;;;;5117695;28;20464;-80
2021/11/28 14:14:36;;;;;;;7.57;4.97;;;1.10;99.90;;;;;;5118212;28;20400;-80
2021/11/28 14:17:02;;;;;;;7.53;5.53;;;1.10;99.90;;;;;;5118406;28;20492;-79
2021/11/28 14:19:36;;;;;;;8.17;5.23;;;1.10;99.90;;;;;;5119825;28;20428;-79
2021/11/28 14:22:02;;;;;;;5.33;4.37;;;1.10;99.90;;;;;;5118669;28;20470;-79
2021/11/28 14:24:29;;;;;;;11.13;6.87;;;1.10;99.90;;;;;;5117521;28;20409;-80
2021/11/28 14:27:20;;;;;;;10.23;6.50;;;1.10;99.90;;;;;;5119962;28;21028;-79
2021/11/28 14:29:58;;;;;;;8.83;6.80;;;1.10;99.90;;;;;;5118792;28;21012;-79
2021/11/28 14:32:24;;;;;;;6.07;4.53;;;1.10;99.90;;;;;;5117683;28;20571;-79
2021/11/28 14:34:50;;;;;;;11.03;6.17;;;1.10;99.90;;;;;;5117675;28;20446;-79
2021/11/28 14:37:17;;;;;;;11.13;7.07;;;1.00;99.90;;;;;;5119201;28;20175;-79
2021/11/28 14:39:44;;;;;;;9.10;7.70;;;1.00;99.90;;;;;;5119870;28;20160;-80
2021/11/28 14:42:16;;;;;;;9.33;7.63;;;1.00;99.90;;;;;;5120560;28;20436;-79
2021/11/28 14:44:48;;;;;;;10.00;6.77;;;1.00;99.90;;;;;;5119171;28;20410;-79
2021/11/28 14:47:26;;;;;;;9.80;6.97;;;1.00;99.90;;;;;;5117149;28;20433;-79
2021/11/28 14:49:54;;;;;;;7.50;5.83;;;1.00;99.90;;;;;;5119501;28;20425;-79
2021/11/28 14:52:30;;;;;;;9.77;5.93;;;1.00;99.90;;;;;;5117727;28;20496;-79
2021/11/28 14:55:20;;;;;;;7.00;5.40;;;0.90;99.90;;;;;;5119051;28;20412;-79
2021/11/28 14:57:49;;;;;;;9.50;6.20;;;0.90;99.90;;;;;;5117606;28;20765;-79
2021/11/28 15:00:32;;;;;;;8.60;4.93;;;0.90;99.90;;;;;;5116099;28;20405;-79
2021/11/28 15:03:12;;;;;;;7.73;5.43;;;0.90;99.90;;;;;;5117011;28;20433;-79
2021/11/28 15:05:40;;;;;;;7.13;4.90;;;0.90;99.90;;;;;;5116501;28;20409;-79
2021/11/28 15:08:18;;;;;;;26.10;16.37;;;0.80;99.90;;;;;;5118048;28;20402;-79
2021/11/28 15:10:55;;;;;;;50.33;29.23;;;0.80;99.90;;;;;;5117579;28;20445;-76
2021/11/28 15:13:28;;;;;;;20.77;12.83;;;0.70;99.90;;;;;;5117349;28;20783;-79
2021/11/28 15:15:59;;;;;;;34.13;17.77;;;0.70;99.90;;;;;;5116203;28;20421;-79
2021/11/28 15:18:28;;;;;;;36.17;19.27;;;0.80;99.90;;;;;;5118254;28;20432;-79
2021/11/28 15:20:54;;;;;;;22.27;12.93;;;0.70;99.90;;;;;;5117249;28;20421;-79
2021/11/28 15:23:21;;;;;;;27.50;17.27;;;0.70;99.90;;;;;;5117205;28;20433;-80
2021/11/28 15:25:47;;;;;;;36.33;17.07;;;0.60;99.90;;;;;;5118141;28;20500;-79
2021/11/28 15:28:13;;;;;;;12.10;7.80;;;0.50;99.90;;;;;;5119587;28;20444;-80
2021/11/28 15:30:40;;;;;;;6.17;4.90;;;0.40;99.90;;;;;;5120293;28;20199;-80
2021/11/28 15:33:06;;;;;;;3.70;2.90;;;0.30;99.90;;;;;;5121300;28;20191;-79
2021/11/28 15:35:33;;;;;;;9.03;6.20;;;0.00;99.90;;;;;;5118500;28;20854;-80
2021/11/28 15:38:02;;;;;;;19.60;15.10;;;-0.10;99.90;;;;;;5122058;28;20412;-82
2021/11/28 15:40:30;;;;;;;6.43;4.80;;;-0.20;99.90;;;;;;5119183;28;20414;-79
2021/11/28 15:42:57;;;;;;;7.43;5.50;;;-0.20;99.90;;;;;;5117937;28;20425;-78
2021/11/28 15:45:23;;;;;;;15.37;11.10;;;-0.30;99.90;;;;;;5119707;28;20417;-79
2021/11/28 15:47:49;;;;;;;20.27;11.13;;;-0.30;99.90;;;;;;5117526;28;20414;-76
2021/11/28 15:50:17;;;;;;;29.13;14.40;;;-0.40;99.90;;;;;;5115154;28;20421;-79
2021/11/28 15:52:46;;;;;;;30.50;12.70;;;-0.40;99.90;;;;;;5115801;28;20194;-79
2021/11/28 15:55:14;;;;;;;50.90;22.53;;;-0.40;99.90;;;;;;5117382;28;20405;-79
2021/11/28 15:57:40;;;;;;;31.80;15.23;;;-0.40;99.90;;;;;;5100153;28;20473;-79
2021/11/28 16:00:10;;;;;;;8.30;5.70;;;-0.40;99.90;;;;;;5115653;28;20449;-80
